Time;durP1;ratioP1;P1;durP2;ratioP2;P2;SDS_P1;SDS_P2;PMS_P1;PMS_P2;Temp;Humidity;BMP_temperature;BMP_pressure;BME280_temperature;BME280_humidity;BME280_pressure;Samples;Min_cycle;Max_cycle;Signal;HPM_P1;HPM_P2
2023/08/27 00:01:44;;;;;;;2.50;2.10;;;;;;;22.63;100.00;97089.63;1225014;75;2917234;-70
2023/08/27 00:04:16;;;;;;;2.35;2.15;;;;;;;22.56;100.00;97091.19;1225286;75;2921334;-70
2023/08/27 00:06:49;;;;;;;2.35;2.15;;;;;;;22.58;100.00;97088.56;1225467;75;2917456;-68
2023/08/27 00:09:21;;;;;;;2.00;1.75;;;;;;;22.52;100.00;97091.59;1225095;75;2921853;-68
2023/08/27 00:11:57;;;;;;;3.80;2.80;;;;;;;22.43;100.00;97091.50;1225070;75;2922379;-70
2023/08/27 00:14:30;;;;;;;2.55;2.25;;;;;;;22.47;100.00;97092.56;1226137;75;2916617;-69
2023/08/27 00:17:03;;;;;;;3.90;2.25;;;;;;;22.48;100.00;97088.47;1224893;75;2920348;-69
2023/08/27 00:19:36;;;;;;;2.50;2.30;;;;;;;22.50;100.00;97087.91;1223128;75;2941260;-66
2023/08/27 00:22:09;;;;;;;2.10;1.90;;;;;;;22.48;100.00;97080.09;1225752;75;2915746;-68
2023/08/27 00:24:41;;;;;;;2.60;2.00;;;;;;;22.39;100.00;97072.38;1225653;75;2920025;-71
2023/08/27 00:27:16;;;;;;;3.40;2.20;;;;;;;22.40;100.00;97067.56;1225889;75;2921220;-68
2023/08/27 00:29:49;;;;;;;2.40;2.00;;;;;;;22.24;100.00;97067.66;1225666;75;2909163;-70
2023/08/27 00:32:21;;;;;;;3.55;3.25;;;;;;;21.86;100.00;97068.69;1225363;75;2922804;-68
2023/08/27 00:34:54;;;;;;;3.70;3.10;;;;;;;22.18;100.00;97064.34;1225439;75;2926341;-70
2023/08/27 00:37:27;;;;;;;3.15;2.85;;;;;;;22.31;100.00;97063.34;1225381;75;2915703;-71
2023/08/27 00:39:59;;;;;;;2.50;2.30;;;;;;;22.28;100.00;97050.53;1225472;75;2918834;-69
2023/08/27 00:42:34;;;;;;;2.40;2.20;;;;;;;22.30;100.00;97054.25;1224812;75;2917056;-69
2023/08/27 00:45:09;;;;;;;3.65;2.75;;;;;;;22.20;100.00;97042.25;1224311;75;2944475;-71
2023/08/27 00:47:42;;;;;;;3.25;2.30;;;;;;;21.99;100.00;97069.72;1225201;75;2922870;-69
2023/08/27 00:50:15;;;;;;;3.70;3.40;;;;;;;21.53;100.00;97069.97;1225866;75;2917766;-71
2023/08/27 00:52:48;;;;;;;4.00;3.60;;;;;;;21.80;100.00;97059.06;1224956;75;2924773;-71
2023/08/27 00:55:20;;;;;;;4.75;3.55;;;;;;;21.78;100.00;97064.44;1225059;75;2924241;-71
2023/08/27 00:57:57;;;;;;;6.35;4.45;;;;;;;21.68;100.00;97065.06;1224201;75;2926308;-67
2023/08/27 01:00:30;;;;;;;4.55;3.90;;;;;;;21.90;100.00;97063.44;1224826;75;2921039;-70
2023/08/27 01:03:04;;;;;;;4.35;3.80;;;;;;;21.72;100.00;97063.94;1224859;75;2921680;-68
2023/08/27 01:05:36;;;;;;;3.55;3.10;;;;;;;21.89;100.00;97069.59;1225556;75;2923052;-68
2023/08/27 01:08:17;;;;;;;3.20;2.80;;;;;;;21.89;100.00;97072.38;1225066;75;2919253;-67
2023/08/27 01:11:11;;;;;;;3.60;3.00;;;;;;;21.96;100.00;97070.81;1224584;75;2920713;-67
2023/08/27 01:13:53;;;;;;;3.20;2.90;;;;;;;21.42;100.00;97076.72;1226007;75;2919993;-70
2023/08/27 01:16:30;;;;;;;4.45;4.05;;;;;;;21.67;100.00;97068.41;1225569;75;2911995;-69
2023/08/27 01:19:04;;;;;;;3.60;3.30;;;;;;;21.80;100.00;97068.16;1225984;75;2922185;-69
2023/08/27 01:21:39;;;;;;;3.60;2.95;;;;;;;21.89;100.00;97070.31;1226395;75;2922029;-67
2023/08/27 01:24:13;;;;;;;2.90;2.60;;;;;;;21.86;100.00;97079.06;1226030;75;2915394;-67
2023/08/27 01:26:50;;;;;;;3.25;2.90;;;;;;;21.83;100.00;97080.22;1226016;75;2913028;-72
2023/08/27 01:29:31;;;;;;;2.20;2.00;;;;;;;21.80;100.00;97081.34;1226338;75;2916719;-69
2023/08/27 01:32:10;;;;;;;3.65;2.45;;;;;;;21.63;100.00;97082.75;1225719;67;2922268;-67
2023/08/27 01:34:44;;;;;;;4.85;4.15;;;;;;;21.55;100.00;97079.28;1225571;75;2912994;-67
2023/08/27 01:37:20;;;;;;;4.15;3.35;;;;;;;21.72;100.00;97080.63;1224705;75;2913915;-69
2023/08/27 01:40:05;;;;;;;3.70;3.30;;;;;;;21.78;100.00;97081.16;1226379;75;2914782;-70
2023/08/27 01:42:38;;;;;;;4.20;2.95;;;;;;;21.66;100.00;97087.16;1226244;75;2913246;-69
2023/08/27 01:45:17;;;;;;;3.30;3.00;;;;;;;21.71;100.00;97085.47;1225898;75;2915387;-67
2023/08/27 01:47:49;;;;;;;3.00;2.65;;;;;;;21.75;100.00;97083.03;1225733;75;2909181;-69
2023/08/27 01:50:22;;;;;;;3.35;2.60;;;;;;;21.74;100.00;97084.34;1226196;75;2912524;-71
2023/08/27 01:52:57;;;;;;;3.70;2.80;;;;;;;21.62;100.00;97081.28;1226520;75;2918165;-67
2023/08/27 01:55:30;;;;;;;3.10;2.75;;;;;;;21.66;100.00;97081.59;1226000;75;2909692;-67
2023/08/27 01:58:03;;;;;;;2.95;2.55;;;;;;;21.64;100.00;97075.84;1226599;75;2900440;-67
2023/08/27 02:00:36;;;;;;;2.65;2.45;;;;;;;21.60;100.00;97081.09;1226270;75;2911718;-68
2023/08/27 02:03:09;;;;;;;3.05;2.75;;;;;;;21.63;100.00;97074.38;1226367;75;2910050;-67
2023/08/27 02:05:42;;;;;;;2.40;2.20;;;;;;;21.65;100.00;97077.34;1225928;75;2910021;-69
2023/08/27 02:08:17;;;;;;;3.15;2.40;;;;;;;21.55;100.00;97070.91;1225685;75;2919747;-69
2023/08/27 02:10:52;;;;;;;2.60;2.40;;;;;;;21.59;100.00;97071.25;1225532;75;2913361;-68
2023/08/27 02:13:24;;;;;;;2.35;2.15;;;;;;;21.52;100.00;97076.84;1226419;75;2923249;-71
2023/08/27 02:15:57;;;;;;;2.95;2.60;;;;;;;21.52;100.00;97079.66;1225627;75;2913118;-68
2023/08/27 02:18:30;;;;;;;2.70;2.35;;;;;;;21.46;100.00;97079.88;1225184;75;2912087;-69
2023/08/27 02:21:02;;;;;;;2.30;2.00;;;;;;;21.43;100.00;97080.97;1223470;75;2938381;-69
2023/08/27 02:23:37;;;;;;;4.25;3.15;;;;;;;21.31;100.00;97077.88;1226172;75;2916854;-71
2023/08/27 02:26:10;;;;;;;3.70;2.70;;;;;;;21.32;100.00;97065.41;1225464;75;2918605;-67
2023/08/27 02:28:43;;;;;;;3.20;2.90;;;;;;;21.34;100.00;97073.22;1225900;75;2918008;-69
2023/08/27 02:31:15;;;;;;;3.05;2.75;;;;;;;21.35;100.00;97069.13;1224596;75;2917531;-71
2023/08/27 02:33:48;;;;;;;3.20;2.90;;;;;;;21.30;100.00;97070.06;1225419;75;2916625;-71
2023/08/27 02:36:21;;;;;;;4.15;3.25;;;;;;;21.19;100.00;97066.41;1224958;75;2922547;-69
2023/08/27 02:38:56;;;;;;;3.20;2.90;;;;;;;21.19;100.00;97062.88;1225283;75;2919692;-68
2023/08/27 02:41:29;;;;;;;3.65;3.35;;;;;;;21.14;100.00;97061.78;1225086;75;2923400;-70
2023/08/27 02:44:01;;;;;;;3.95;3.55;;;;;;;21.01;100.00;97059.22;1225404;75;2924641;-67
2023/08/27 02:46:34;;;;;;;4.80;4.00;;;;;;;21.06;100.00;97058.28;1225382;75;2913592;-70
2023/08/27 02:49:07;;;;;;;4.40;4.00;;;;;;;21.07;100.00;97065.34;1225365;75;2911916;-72
2023/08/27 02:51:39;;;;;;;4.45;3.75;;;;;;;21.00;100.00;97057.75;1224735;75;2912036;-68
2023/08/27 02:54:15;;;;;;;3.70;3.40;;;;;;;21.08;100.00;97064.03;1224998;75;2916736;-71
2023/08/27 02:56:47;;;;;;;3.60;3.30;;;;;;;20.99;100.00;97067.41;1225121;75;2916695;-69
2023/08/27 02:59:20;;;;;;;4.45;3.55;;;;;;;21.12;100.00;97055.28;1225103;75;2915324;-72
2023/08/27 03:01:54;;;;;;;3.55;3.25;;;;;;;21.17;100.00;97055.09;1224626;75;2925624;-67
2023/08/27 03:04:27;;;;;;;3.00;2.70;;;;;;;21.13;100.00;97051.94;1225173;75;2906683;-69
2023/08/27 03:06:59;;;;;;;6.10;4.40;;;;;;;20.97;100.00;97056.84;1225460;75;2922634;-68
2023/08/27 03:09:34;;;;;;;5.10;4.60;;;;;;;20.85;100.00;97055.75;1225256;75;2920196;-69
2023/08/27 03:12:08;;;;;;;5.35;4.85;;;;;;;21.04;100.00;97061.63;1225565;75;2911625;-69
2023/08/27 03:14:40;;;;;;;9.65;5.10;;;;;;;20.98;100.00;97072.22;1223800;75;2935562;-67
2023/08/27 03:17:13;;;;;;;5.95;5.35;;;;;;;20.69;100.00;97073.78;1225330;75;2921837;-65
2023/08/27 03:19:46;;;;;;;5.40;4.85;;;;;;;20.86;100.00;97087.84;1225904;75;2912484;-71
2023/08/27 03:22:18;;;;;;;7.00;5.00;;;;;;;20.83;100.00;97100.09;1225152;75;2916546;-68
2023/08/27 03:24:54;;;;;;;5.00;4.55;;;;;;;20.90;100.00;97093.78;1224795;75;2920873;-68
2023/08/27 03:27:26;;;;;;;5.55;4.40;;;;;;;20.89;100.00;97102.69;1225683;75;2911041;-66
2023/08/27 03:29:59;;;;;;;4.40;4.00;;;;;;;20.98;100.00;97102.84;1225309;75;2920402;-71
2023/08/27 03:32:31;;;;;;;4.75;3.90;;;;;;;20.83;100.00;97109.19;1225486;75;2923615;-66
2023/08/27 03:35:04;;;;;;;4.25;3.85;;;;;;;20.94;100.00;97113.59;1226020;75;2918504;-69
2023/08/27 03:37:37;;;;;;;3.80;3.40;;;;;;;20.68;100.00;97111.97;1225594;75;2918910;-70
2023/08/27 03:40:13;;;;;;;5.25;4.75;;;;;;;20.76;100.00;97107.16;1225433;75;2913057;-66
2023/08/27 03:42:46;;;;;;;4.10;3.70;;;;;;;20.95;100.00;97108.78;1225925;75;2916376;-70
2023/08/27 03:45:20;;;;;;;3.85;3.45;;;;;;;20.94;100.00;97099.69;1225711;75;2912579;-66
2023/08/27 03:47:52;;;;;;;3.35;3.05;;;;;;;20.98;100.00;97113.97;1225389;75;2919268;-68
2023/08/27 03:50:25;;;;;;;3.50;3.20;;;;;;;20.88;100.00;97126.97;1225876;75;2916465;-67
2023/08/27 03:52:57;;;;;;;4.65;3.20;;;;;;;20.99;100.00;97123.78;1224343;75;2917805;-68
2023/08/27 03:55:33;;;;;;;3.85;3.00;;;;;;;20.98;100.00;97116.03;1225708;75;2910446;-69
2023/08/27 03:58:06;;;;;;;3.60;2.85;;;;;;;20.83;100.00;97111.97;1225669;75;2914351;-67
2023/08/27 04:00:39;;;;;;;3.60;3.30;;;;;;;20.88;100.00;97106.75;1224883;75;2925727;-69
2023/08/27 04:03:12;;;;;;;3.40;3.10;;;;;;;20.89;100.00;97111.75;1225614;75;2916448;-69
2023/08/27 04:05:48;;;;;;;5.20;4.15;;;;;;;20.65;100.00;97101.97;1226088;75;2915496;-66
2023/08/27 04:08:21;;;;;;;4.75;4.25;;;;;;;20.68;100.00;97097.34;1224994;75;2951979;-68
2023/08/27 04:10:57;;;;;;;5.00;4.30;;;;;;;20.84;100.00;97104.34;1225254;75;2919726;-68
2023/08/27 04:13:29;;;;;;;3.90;3.50;;;;;;;20.93;100.00;97114.19;1224795;75;2921867;-67
2023/08/27 04:16:03;;;;;;;3.60;3.30;;;;;;;20.88;100.00;97115.09;1224558;75;2916993;-72
2023/08/27 04:18:36;;;;;;;3.95;3.45;;;;;;;20.71;100.00;97110.13;1225234;75;2914038;-67
2023/08/27 04:21:09;;;;;;;3.70;3.40;;;;;;;20.77;100.00;97110.66;1224963;75;2918216;-66
2023/08/27 04:23:41;;;;;;;4.10;3.20;;;;;;;20.93;100.00;97111.41;1225089;75;2931304;-69
2023/08/27 04:26:18;;;;;;;2.90;2.65;;;;;;;20.99;100.00;97111.91;1223918;75;2916763;-66
2023/08/27 04:28:50;;;;;;;3.10;2.80;;;;;;;21.06;100.00;97116.72;1224935;68;2919923;-66
2023/08/27 04:31:23;;;;;;;3.10;2.80;;;;;;;21.09;100.00;97109.28;1224983;75;2925229;-69
2023/08/27 04:33:55;;;;;;;3.60;3.10;;;;;;;21.08;100.00;97110.63;1225689;75;2919090;-68
2023/08/27 04:36:28;;;;;;;4.35;3.70;;;;;;;20.79;100.00;97094.16;1225193;75;2912607;-66
2023/08/27 04:39:01;;;;;;;4.75;4.35;;;;;;;20.94;100.00;97101.72;1225160;75;2919063;-68
2023/08/27 04:41:36;;;;;;;4.95;4.00;;;;;;;21.03;100.00;97110.25;1224887;75;2914390;-66
2023/08/27 04:44:09;;;;;;;3.45;2.95;;;;;;;21.17;100.00;97115.59;1225351;67;2914433;-71
2023/08/27 04:46:44;;;;;;;3.40;3.10;;;;;;;21.27;100.00;97108.13;1224981;75;2923332;-69
2023/08/27 04:49:16;;;;;;;3.55;3.15;;;;;;;21.11;100.00;97103.91;1225011;75;2918637;-66
2023/08/27 04:51:49;;;;;;;4.70;3.45;;;;;;;21.01;100.00;97089.84;1224581;75;2921177;-67
2023/08/27 04:54:21;;;;;;;4.50;4.05;;;;;;;21.07;100.00;97084.81;1224347;75;2923351;-70
2023/08/27 04:56:56;;;;;;;5.50;4.40;;;;;;;20.89;100.00;97091.56;1225044;75;2921192;-69
2023/08/27 04:59:29;;;;;;;4.40;4.00;;;;;;;21.14;100.00;97092.41;1225085;75;2920131;-70
2023/08/27 05:02:02;;;;;;;5.70;4.35;;;;;;;21.08;100.00;97093.91;1224570;75;2926076;-68
2023/08/27 05:04:35;;;;;;;4.00;3.40;;;;;;;21.20;100.00;97101.28;1225199;75;2913500;-68
2023/08/27 05:07:08;;;;;;;4.85;3.45;;;;;;;21.20;100.00;97106.13;1225116;75;2923189;-68
2023/08/27 05:09:40;;;;;;;3.65;3.00;;;;;;;21.43;100.00;97100.47;1225151;75;2919114;-68
2023/08/27 05:12:15;;;;;;;2.60;2.40;;;;;;;21.34;100.00;97099.00;1224841;75;2913845;-69
2023/08/27 05:14:48;;;;;;;4.85;3.50;;;;;;;21.22;100.00;97101.47;1225772;75;2911523;-68
2023/08/27 05:17:21;;;;;;;4.30;3.30;;;;;;;21.33;100.00;97105.88;1224757;75;2927496;-69
2023/08/27 05:19:53;;;;;;;3.80;3.05;;;;;;;21.40;100.00;97115.53;1225737;75;2922949;-66
2023/08/27 05:22:26;;;;;;;3.55;3.25;;;;;;;21.37;100.00;97134.06;1225160;75;2916470;-66
2023/08/27 05:24:58;;;;;;;2.85;2.55;;;;;;;21.61;100.00;97135.50;1224914;75;2920954;-66
2023/08/27 05:27:34;;;;;;;3.95;2.50;;;;;;;21.62;100.00;97131.41;1224669;75;2914147;-69
2023/08/27 05:30:07;;;;;;;2.30;2.10;;;;;;;21.76;100.00;97129.09;1225511;75;2913814;-68
2023/08/27 05:32:40;;;;;;;2.00;1.80;;;;;;;21.73;100.00;97132.28;1225046;75;2919088;-68
2023/08/27 05:35:13;;;;;;;3.00;2.40;;;;;;;21.63;100.00;97143.28;1224891;75;2921571;-68
2023/08/27 05:37:45;;;;;;;3.60;2.10;;;;;;;21.97;100.00;97144.78;1225076;75;2915956;-69
2023/08/27 05:40:18;;;;;;;2.30;2.10;;;;;;;21.95;100.00;97141.81;1225330;75;2919749;-71
2023/08/27 05:42:53;;;;;;;1.95;1.75;;;;;;;21.94;100.00;97154.28;1224848;75;2914389;-71
2023/08/27 05:45:26;;;;;;;4.15;3.15;;;;;;;21.69;100.00;97154.94;1225394;75;2917330;-67
2023/08/27 05:47:58;;;;;;;3.75;2.40;;;;;;;22.01;100.00;97156.28;1224504;75;2923029;-68
2023/08/27 05:50:31;;;;;;;4.35;2.80;;;;;;;21.76;100.00;97153.44;1224742;75;2927092;-69
2023/08/27 05:53:04;;;;;;;3.90;2.95;;;;;;;22.07;100.00;97151.22;1225350;75;2922529;-69
2023/08/27 05:55:37;;;;;;;1.75;1.65;;;;;;;22.20;100.00;97150.19;1225848;75;2915616;-67
2023/08/27 05:58:13;;;;;;;2.50;2.20;;;;;;;22.29;100.00;97141.25;1224843;75;2920486;-70
2023/08/27 06:00:45;;;;;;;2.30;2.10;;;;;;;22.10;100.00;97138.94;1225357;75;2912927;-70
2023/08/27 06:03:18;;;;;;;2.55;1.90;;;;;;;22.29;100.00;97130.81;1224412;75;2918868;-67
2023/08/27 06:05:50;;;;;;;2.25;1.95;;;;;;;22.41;100.00;97138.75;1225026;75;2915978;-69
2023/08/27 06:08:23;;;;;;;1.75;1.65;;;;;;;22.62;100.00;97141.19;1224449;75;2928821;-69
2023/08/27 06:10:55;;;;;;;2.00;1.80;;;;;;;22.66;100.00;97131.09;1225526;75;2923179;-68
2023/08/27 06:13:31;;;;;;;1.80;1.65;;;;;;;22.61;100.00;97125.75;1225747;75;2910295;-68
2023/08/27 06:16:03;;;;;;;1.90;1.65;;;;;;;22.88;100.00;97126.59;1225552;75;2915682;-71
2023/08/27 06:18:36;;;;;;;2.00;1.80;;;;;;;22.93;100.00;97136.06;1226033;75;2912037;-67
2023/08/27 06:21:09;;;;;;;1.70;1.40;;;;;;;23.18;100.00;97141.59;1224875;75;2956832;-71
2023/08/27 06:23:41;;;;;;;2.30;1.90;;;;;;;22.95;100.00;97144.59;1224999;75;2917345;-67
2023/08/27 06:26:14;;;;;;;3.25;2.10;;;;;;;22.86;100.00;97139.66;1224876;75;2924835;-69
2023/08/27 06:28:49;;;;;;;3.40;1.90;;;;;;;23.22;100.00;97132.81;1225531;75;2912072;-66
2023/08/27 06:31:22;;;;;;;2.85;1.80;;;;;;;23.43;100.00;97135.16;1225265;75;2922595;-71
2023/08/27 06:33:55;;;;;;;3.15;2.35;;;;;;;23.27;100.00;97138.13;1224221;75;3024236;-70
2023/08/27 06:36:27;;;;;;;4.10;3.15;;;;;;;22.95;100.00;97130.66;1225555;75;2920459;-71
2023/08/27 06:39:00;;;;;;;3.05;2.50;;;;;;;23.61;100.00;97123.38;1224752;75;2914957;-69
2023/08/27 06:41:32;;;;;;;2.25;2.05;;;;;;;23.77;100.00;97121.16;1224788;75;2916938;-66
2023/08/27 06:44:08;;;;;;;4.35;3.30;;;;;;;22.94;100.00;97118.72;1225836;75;2916671;-68
2023/08/27 06:46:41;;;;;;;3.00;2.70;;;;;;;23.77;100.00;97118.38;1225418;75;2914570;-70
2023/08/27 06:49:13;;;;;;;4.10;3.25;;;;;;;23.30;100.00;97125.81;1225834;75;2915835;-66
2023/08/27 06:51:46;;;;;;;3.95;3.00;;;;;;;23.58;100.00;97144.09;1225640;75;2912792;-67
2023/08/27 06:54:18;;;;;;;3.00;2.55;;;;;;;24.16;100.00;97140.91;1225607;75;2915128;-67
2023/08/27 06:56:51;;;;;;;2.65;2.30;;;;;;;24.29;100.00;97134.19;1224066;75;2923479;-67
2023/08/27 06:59:26;;;;;;;2.50;2.20;;;;;;;24.63;100.00;97135.38;1225430;75;2915472;-70
2023/08/27 07:01:59;;;;;;;4.25;3.00;;;;;;;23.96;100.00;97139.38;1224993;75;2915512;-67
2023/08/27 07:04:31;;;;;;;3.20;2.75;;;;;;;24.54;100.00;97133.28;1224736;75;2922020;-68
2023/08/27 07:07:04;;;;;;;2.10;1.90;;;;;;;24.79;100.00;97130.97;1225588;75;2922782;-69
2023/08/27 07:09:36;;;;;;;2.90;2.60;;;;;;;23.57;100.00;97128.66;1225578;75;2920064;-66
2023/08/27 07:12:10;;;;;;;3.25;2.35;;;;;;;24.39;100.00;97123.03;1225530;75;2920706;-72
2023/08/27 07:14:46;;;;;;;2.10;1.90;;;;;;;24.71;96.46;97126.84;1225374;75;2920486;-70
2023/08/27 07:17:18;;;;;;;1.75;1.60;;;;;;;24.85;92.79;97133.50;1225191;75;2920311;-66
2023/08/27 07:19:51;;;;;;;2.45;2.10;;;;;;;24.57;94.98;97130.06;1225047;75;2915444;-72
2023/08/27 07:22:24;;;;;;;2.95;2.30;;;;;;;23.96;99.57;97131.72;1224072;75;2915930;-70
2023/08/27 07:24:57;;;;;;;3.50;2.25;;;;;;;23.84;100.00;97122.38;1226313;75;2910549;-67
2023/08/27 07:27:29;;;;;;;2.30;2.10;;;;;;;23.90;98.93;97113.72;1226264;75;2914907;-70
2023/08/27 07:30:05;;;;;;;2.40;1.95;;;;;;;24.66;94.06;97114.63;1225625;75;2921084;-69
2023/08/27 07:32:37;;;;;;;3.25;2.10;;;;;;;24.45;96.60;97103.94;1226178;75;2914555;-68
2023/08/27 07:35:08;;;;;;;2.50;2.00;;;;;;;24.67;94.00;97105.63;1224173;75;2925118;-70
2023/08/27 07:37:40;;;;;;;3.35;2.30;;;;;;;24.22;96.59;97093.09;1224695;75;2918964;-69
2023/08/27 07:40:14;;;;;;;2.40;1.95;;;;;;;24.73;94.19;97087.81;1225126;75;2915926;-69
2023/08/27 07:42:47;;;;;;;2.55;2.00;;;;;;;24.94;92.67;97087.22;1225440;75;2918530;-69
2023/08/27 07:45:22;;;;;;;2.50;2.00;;;;;;;25.09;90.18;97086.97;1225293;75;2920258;-69
2023/08/27 07:47:54;;;;;;;2.60;2.20;;;;;;;25.28;90.07;97075.75;1225728;75;2920218;-66
2023/08/27 07:50:28;;;;;;;3.45;2.45;;;;;;;24.46;94.80;97088.63;1225637;75;2917795;-68
2023/08/27 07:53:01;;;;;;;2.10;1.90;;;;;;;24.57;91.67;97076.16;1225334;75;2919362;-70
2023/08/27 07:55:34;;;;;;;2.45;2.20;;;;;;;24.71;91.13;97068.81;1225597;75;2917314;-66
2023/08/27 07:58:07;;;;;;;4.00;2.10;;;;;;;24.50;91.68;97055.38;1225552;75;2911545;-71
2023/08/27 08:00:42;;;;;;;3.00;2.05;;;;;;;24.33;94.25;97056.19;1225719;75;2912772;-65
2023/08/27 08:03:15;;;;;;;2.45;2.20;;;;;;;24.44;95.08;97052.09;1225577;75;2925723;-71
2023/08/27 08:05:51;;;;;;;2.40;2.05;;;;;;;24.58;93.65;97055.97;1224569;75;2916603;-68
2023/08/27 08:08:25;;;;;;;2.65;2.00;;;;;;;24.78;94.01;97062.31;1224827;75;2920965;-68
2023/08/27 08:10:59;;;;;;;2.20;1.85;;;;;;;25.09;89.02;97068.06;1224723;75;2920344;-67
2023/08/27 08:13:32;;;;;;;2.45;2.20;;;;;;;24.23;94.09;97067.34;1225119;75;2915940;-71
2023/08/27 08:16:07;;;;;;;2.95;2.35;;;;;;;24.46;95.74;97083.03;1224022;75;2947145;-66
2023/08/27 08:18:40;;;;;;;2.70;1.95;;;;;;;24.87;92.42;97070.00;1225252;75;2915690;-71
2023/08/27 08:21:13;;;;;;;3.35;2.55;;;;;;;24.67;90.71;97060.09;1225204;75;2913298;-69
2023/08/27 08:23:46;;;;;;;2.95;2.40;;;;;;;25.23;88.09;97064.84;1225370;75;2913340;-67
2023/08/27 08:26:18;;;;;;;4.00;2.30;;;;;;;25.11;89.11;97058.34;1225147;75;2917274;-69
2023/08/27 08:28:51;;;;;;;2.90;2.20;;;;;;;25.22;86.38;97060.56;1225227;75;2920487;-68
2023/08/27 08:31:26;;;;;;;3.25;2.10;;;;;;;25.79;83.95;97063.84;1225161;75;2920896;-71
2023/08/27 08:33:59;;;;;;;2.25;1.90;;;;;;;25.99;80.62;97075.75;1225609;75;2919378;-69
2023/08/27 08:36:31;;;;;;;2.85;2.40;;;;;;;25.87;80.06;97070.03;1225230;75;2914026;-66
2023/08/27 08:39:04;;;;;;;4.75;2.50;;;;;;;26.26;77.17;97067.78;1225109;75;2919090;-70
2023/08/27 08:41:44;;;;;;;3.80;2.35;;;;;;;26.29;74.26;97060.25;1225622;75;2914632;-67
2023/08/27 08:44:26;;;;;;;3.50;3.20;;;;;;;26.61;75.19;97067.34;1225322;75;2922480;-68
2023/08/27 08:47:02;;;;;;;8.70;2.90;;;;;;;25.75;78.38;97061.50;1225802;75;2922573;-68
2023/08/27 08:49:38;;;;;;;3.55;2.90;;;;;;;26.04;78.40;97055.78;1226023;75;2916892;-67
2023/08/27 08:52:15;;;;;;;4.25;3.45;;;;;;;25.48;81.93;97051.25;1226170;75;2919397;-69
2023/08/27 08:54:54;;;;;;;4.10;3.50;;;;;;;26.44;78.02;97051.47;1225380;75;2919609;-68
2023/08/27 08:57:30;;;;;;;;;;;;;;;26.16;78.84;97052.34;1227022;75;2918642;-66
2023/08/27 09:00:03;;;;;;;4.35;3.10;;;;;;;26.46;77.93;97059.28;1224706;75;2922583;-69
2023/08/27 09:02:39;;;;;;;4.35;3.30;;;;;;;26.26;79.61;97050.97;1225138;75;2914974;-67
2023/08/27 09:05:14;;;;;;;4.05;3.65;;;;;;;25.96;80.14;97049.66;1224249;75;2912720;-67
2023/08/27 09:07:48;;;;;;;3.90;3.25;;;;;;;26.42;78.95;97039.38;1225605;75;2920874;-68
2023/08/27 09:10:21;;;;;;;3.85;3.10;;;;;;;26.68;79.19;97041.13;1224649;75;2928770;-68
2023/08/27 09:12:57;;;;;;;3.95;3.05;;;;;;;27.76;74.54;97036.00;1225460;75;2917318;-66
2023/08/27 09:15:30;;;;;;;3.40;2.95;;;;;;;27.12;73.87;97033.38;1225323;75;2921424;-71
2023/08/27 09:18:06;;;;;;;3.40;3.10;;;;;;;27.81;70.45;97018.03;1224713;75;2925050;-70
2023/08/27 09:20:39;;;;;;;4.50;3.65;;;;;;;27.62;72.66;97033.03;1224329;75;2921985;-67
2023/08/27 09:23:13;;;;;;;4.15;3.35;;;;;;;27.52;73.90;97028.88;1225571;75;2918720;-67
2023/08/27 09:25:46;;;;;;;3.90;3.25;;;;;;;27.40;70.96;97015.53;1224889;75;2914542;-70
2023/08/27 09:28:20;;;;;;;3.20;2.90;;;;;;;27.37;70.38;97007.56;1225169;75;2922575;-68
2023/08/27 09:30:53;;;;;;;4.10;2.95;;;;;;;27.68;71.31;97007.38;1224863;75;2917253;-71
2023/08/27 09:33:40;;;;;;;5.90;3.70;;;;;;;27.07;73.44;97009.91;1223550;75;2921372;-67
2023/08/27 09:36:13;;;;;;;3.90;3.20;;;;;;;27.33;70.86;97018.56;1224410;75;2930014;-70
2023/08/27 09:38:48;;;;;;;3.65;3.10;;;;;;;27.82;69.92;97013.88;1224705;75;2925537;-70
2023/08/27 09:41:21;;;;;;;5.30;3.95;;;;;;;27.06;73.38;97008.47;1224864;75;2914995;-69
2023/08/27 09:43:56;;;;;;;3.85;3.35;;;;;;;27.45;73.08;97008.09;1224785;75;2918800;-70
2023/08/27 09:46:29;;;;;;;4.00;3.50;;;;;;;27.32;71.68;97008.66;1224672;75;2916114;-71
2023/08/27 09:49:07;;;;;;;5.10;3.95;;;;;;;26.90;74.88;97008.16;1224569;75;2944626;-68
2023/08/27 09:51:42;;;;;;;4.30;3.80;;;;;;;27.65;72.29;96985.38;1225115;75;2925151;-68
2023/08/27 09:54:19;;;;;;;3.15;2.85;;;;;;;28.58;67.79;96989.47;1224667;75;2916382;-69
2023/08/27 09:56:59;;;;;;;2.30;2.10;;;;;;;28.77;67.84;96989.16;1225342;75;2920941;-69
2023/08/27 09:59:31;;;;;;;3.25;2.80;;;;;;;28.83;64.82;96983.13;1224485;75;2925926;-69
2023/08/27 10:02:04;;;;;;;5.10;3.70;;;;;;;27.95;68.19;96973.19;1224167;75;2923196;-70
2023/08/27 10:04:53;;;;;;;5.70;3.50;;;;;;;27.58;71.07;96973.75;1225431;75;2921520;-70
2023/08/27 10:07:26;;;;;;;3.80;3.20;;;;;;;28.36;71.06;96967.09;1225535;75;2930131;-67
2023/08/27 10:09:59;;;;;;;4.05;3.65;;;;;;;28.94;66.89;96961.91;1224647;75;2921147;-68
2023/08/27 10:12:32;;;;;;;4.70;3.70;;;;;;;28.49;68.35;96960.13;1224651;75;2919648;-69
2023/08/27 10:15:07;;;;;;;4.30;3.50;;;;;;;29.12;67.19;96954.47;1225180;75;2916173;-68
2023/08/27 10:17:41;;;;;;;5.85;3.75;;;;;;;28.81;66.09;96952.75;1224764;75;2916561;-66
2023/08/27 10:20:17;;;;;;;6.05;3.45;;;;;;;29.00;65.62;96959.41;1225164;75;2914953;-69
2023/08/27 10:22:50;;;;;;;4.05;3.65;;;;;;;28.65;66.25;96957.50;1224664;75;2916124;-68
2023/08/27 10:25:23;;;;;;;4.45;3.95;;;;;;;28.85;65.84;96950.16;1225786;75;2918116;-67
2023/08/27 10:27:55;;;;;;;4.10;3.70;;;;;;;29.23;64.48;96945.22;1224924;75;2915768;-70
2023/08/27 10:30:29;;;;;;;4.45;3.65;;;;;;;29.14;63.84;96936.94;1224867;75;2923177;-67
2023/08/27 10:33:02;;;;;;;3.95;3.55;;;;;;;28.62;65.00;96933.38;1225863;75;2916567;-68
2023/08/27 10:35:43;;;;;;;3.45;3.15;;;;;;;30.26;62.39;96923.03;1226025;67;2917877;-68
2023/08/27 10:38:16;;;;;;;5.20;3.75;;;;;;;29.37;64.10;96919.13;1225554;75;2915730;-67
2023/08/27 10:40:49;;;;;;;3.70;3.30;;;;;;;29.52;62.78;96924.91;1224892;75;2919573;-70
2023/08/27 10:43:23;;;;;;;3.20;2.90;;;;;;;30.82;59.88;96920.03;1225118;75;2916389;-70
2023/08/27 10:46:11;;;;;;;3.55;2.90;;;;;;;31.69;58.41;96923.31;1225702;75;2911467;-69
2023/08/27 10:48:44;;;;;;;3.80;3.40;;;;;;;30.52;60.27;96917.94;1225682;75;2919593;-70
2023/08/27 10:51:21;;;;;;;4.40;3.35;;;;;;;31.61;58.00;96914.50;1225776;75;2921340;-69
2023/08/27 10:54:07;;;;;;;2.60;2.40;;;;;;;31.23;58.45;96908.53;1225659;75;2921050;-67
2023/08/27 10:56:41;;;;;;;4.30;2.75;;;;;;;31.74;57.03;96910.09;1225148;75;2912236;-68
2023/08/27 10:59:28;;;;;;;2.85;2.50;;;;;;;32.36;56.86;96904.91;1225819;75;2924857;-71
2023/08/27 11:02:10;;;;;;;3.00;2.30;;;;;;;33.95;52.85;96896.75;1225768;75;2923780;-69
2023/08/27 11:04:44;;;;;;;2.70;2.50;;;;;;;33.46;52.98;96886.50;1224751;75;2919398;-68
2023/08/27 11:07:22;;;;;;;3.10;2.80;;;;;;;32.39;55.22;96892.28;1225496;75;2902369;-68
2023/08/27 11:09:58;;;;;;;3.40;2.45;;;;;;;33.80;52.11;96883.47;1225931;75;2923617;-67
2023/08/27 11:12:35;;;;;;;2.85;2.50;;;;;;;33.15;51.88;96884.66;1225104;75;2930397;-67
2023/08/27 11:15:16;;;;;;;4.40;3.00;;;;;;;33.82;51.09;96888.47;1225565;75;2915101;-73
2023/08/27 11:17:49;;;;;;;3.80;3.30;;;;;;;33.02;53.42;96891.94;1225414;75;2913537;-69
2023/08/27 11:20:25;;;;;;;4.15;3.10;;;;;;;32.68;53.95;96888.50;1224501;75;2922896;-68
2023/08/27 11:23:03;;;;;;;3.95;3.35;;;;;;;31.58;56.74;96887.47;1224867;75;2914935;-68
2023/08/27 11:25:35;;;;;;;5.70;3.40;;;;;;;31.44;56.77;96884.00;1226061;75;2922132;-70
2023/08/27 11:28:12;;;;;;;4.40;3.80;;;;;;;31.23;57.25;96883.09;1225227;75;2923135;-69
2023/08/27 11:30:48;;;;;;;4.40;3.70;;;;;;;31.50;56.24;96885.00;1225516;75;2926606;-69
2023/08/27 11:33:22;;;;;;;4.25;3.85;;;;;;;31.91;57.10;96869.78;1225565;75;2920396;-72
2023/08/27 11:35:55;;;;;;;4.40;3.60;;;;;;;31.53;58.12;96871.69;1225495;75;2922400;-68
2023/08/27 11:38:31;;;;;;;5.20;3.65;;;;;;;31.51;57.67;96880.06;1225356;75;2911563;-71
2023/08/27 11:41:04;;;;;;;4.05;3.55;;;;;;;31.96;56.58;96868.59;1225422;75;2918152;-71
2023/08/27 11:43:38;;;;;;;3.90;3.25;;;;;;;32.72;54.98;96863.16;1224824;75;2920433;-71